sensor_id;sensor_type;location;lat;lon;timestamp;pressure;altitude;pressure_sealevel;temperature;humidity
15694;BME280;7947;48.834;9.132;2023-11-18T00:02:41;99043.56;;;6.71;94.74
15694;BME280;7947;48.834;9.132;2023-11-18T00:05:45;99038.94;;;6.78;94.64
15694;BME280;7947;48.834;9.132;2023-11-18T00:08:50;99035.25;;;6.79;94.79
15694;BME280;7947;48.834;9.132;2023-11-18T00:11:53;99043.09;;;6.74;94.88
15694;BME280;7947;48.834;9.132;2023-11-18T00:14:55;99038.94;;;6.78;95.02
15694;BME280;7947;48.834;9.132;2023-11-18T00:17:58;99042.19;;;6.80;95.22
15694;BME280;7947;48.834;9.132;2023-11-18T00:21:01;99033.38;;;6.80;95.10
15694;BME280;7947;48.834;9.132;2023-11-18T00:24:07;99034.56;;;6.84;94.41
15694;BME280;7947;48.834;9.132;2023-11-18T00:27:11;99038.50;;;6.81;93.86
15694;BME280;7947;48.834;9.132;2023-11-18T00:30:16;99034.31;;;6.85;93.35
15694;BME280;7947;48.834;9.132;2023-11-18T00:33:20;99025.75;;;6.83;93.36
15694;BME280;7947;48.834;9.132;2023-11-18T00:36:23;99029.00;;;6.85;93.32
15694;BME280;7947;48.834;9.132;2023-11-18T00:39:27;99037.94;;;6.91;92.99
15694;BME280;7947;48.834;9.132;2023-11-18T00:42:30;99026.47;;;6.90;93.22
15694;BME280;7947;48.834;9.132;2023-11-18T00:45:33;99033.22;;;6.93;93.54
15694;BME280;7947;48.834;9.132;2023-11-18T00:48:36;99038.19;;;7.01;93.22
15694;BME280;7947;48.834;9.132;2023-11-18T00:51:39;99037.84;;;6.97;93.25
15694;BME280;7947;48.834;9.132;2023-11-18T00:54:44;99033.56;;;6.96;93.27
15694;BME280;7947;48.834;9.132;2023-11-18T00:57:47;99030.31;;;6.94;93.98
15694;BME280;7947;48.834;9.132;2023-11-18T01:00:50;99038.75;;;6.91;94.41
15694;BME280;7947;48.834;9.132;2023-11-18T01:03:53;99038.41;;;6.88;95.01
15694;BME280;7947;48.834;9.132;2023-11-18T01:06:56;99037.56;;;6.87;95.81
15694;BME280;7947;48.834;9.132;2023-11-18T01:10:01;99043.38;;;6.84;95.75
15694;BME280;7947;48.834;9.132;2023-11-18T01:13:05;99029.47;;;6.82;96.11
15694;BME280;7947;48.834;9.132;2023-11-18T01:16:08;99039.22;;;6.88;96.36
15694;BME280;7947;48.834;9.132;2023-11-18T01:19:13;99043.88;;;6.93;96.51
15694;BME280;7947;48.834;9.132;2023-11-18T01:22:16;99049.56;;;6.96;96.62
15694;BME280;7947;48.834;9.132;2023-11-18T01:25:21;99055.00;;;7.01;96.74
15694;BME280;7947;48.834;9.132;2023-11-18T01:28:24;99057.84;;;7.18;96.46
15694;BME280;7947;48.834;9.132;2023-11-18T01:31:28;99065.84;;;7.18;96.06
15694;BME280;7947;48.834;9.132;2023-11-18T01:34:48;99062.78;;;7.14;95.83
15694;BME280;7947;48.834;9.132;2023-11-18T01:37:52;99068.59;;;7.11;96.04
15694;BME280;7947;48.834;9.132;2023-11-18T01:40:57;99073.34;;;7.09;96.15
15694;BME280;7947;48.834;9.132;2023-11-18T01:44:02;99068.25;;;7.08;96.28
15694;BME280;7947;48.834;9.132;2023-11-18T01:47:07;99066.16;;;7.10;96.17
15694;BME280;7947;48.834;9.132;2023-11-18T01:50:12;99056.06;;;7.12;95.97
15694;BME280;7947;48.834;9.132;2023-11-18T01:53:16;99062.69;;;7.32;95.31
15694;BME280;7947;48.834;9.132;2023-11-18T01:56:22;99063.75;;;7.32;94.34
15694;BME280;7947;48.834;9.132;2023-11-18T01:59:28;99063.97;;;7.30;94.96
15694;BME280;7947;48.834;9.132;2023-11-18T02:02:31;99067.09;;;7.27;94.77
15694;BME280;7947;48.834;9.132;2023-11-18T02:05:36;99066.63;;;7.30;94.96
15694;BME280;7947;48.834;9.132;2023-11-18T02:08:40;99066.53;;;7.25;95.17
15694;BME280;7947;48.834;9.132;2023-11-18T02:11:52;99063.28;;;7.23;95.09
15694;BME280;7947;48.834;9.132;2023-11-18T02:14:57;99062.81;;;7.26;94.92
15694;BME280;7947;48.834;9.132;2023-11-18T02:18:03;99055.75;;;7.20;94.94
15694;BME280;7947;48.834;9.132;2023-11-18T02:21:11;99063.75;;;7.20;94.57
15694;BME280;7947;48.834;9.132;2023-11-18T02:24:25;99059.31;;;7.14;94.59
15694;BME280;7947;48.834;9.132;2023-11-18T02:27:29;99060.94;;;7.15;95.04
15694;BME280;7947;48.834;9.132;2023-11-18T02:30:32;99057.00;;;7.17;94.99
15694;BME280;7947;48.834;9.132;2023-11-18T02:33:40;99055.03;;;7.13;95.34
15694;BME280;7947;48.834;9.132;2023-11-18T02:36:49;99058.94;;;6.99;95.42
15694;BME280;7947;48.834;9.132;2023-11-18T02:39:56;99060.09;;;7.03;95.67
15694;BME280;7947;48.834;9.132;2023-11-18T02:43:07;99062.19;;;7.12;95.39
15694;BME280;7947;48.834;9.132;2023-11-18T02:46:11;99055.84;;;7.13;94.16
15694;BME280;7947;48.834;9.132;2023-11-18T02:49:15;99057.44;;;7.14;92.15
15694;BME280;7947;48.834;9.132;2023-11-18T02:52:19;99054.00;;;7.14;90.57
15694;BME280;7947;48.834;9.132;2023-11-18T02:55:22;99068.34;;;7.13;89.25
15694;BME280;7947;48.834;9.132;2023-11-18T02:58:27;99053.84;;;6.97;89.37
15694;BME280;7947;48.834;9.132;2023-11-18T03:01:30;99057.41;;;6.91;89.70
15694;BME280;7947;48.834;9.132;2023-11-18T03:04:33;99056.22;;;6.87;89.30
15694;BME280;7947;48.834;9.132;2023-11-18T03:07:36;99048.03;;;6.89;89.86
15694;BME280;7947;48.834;9.132;2023-11-18T03:10:39;99053.78;;;6.74;90.51
15694;BME280;7947;48.834;9.132;2023-11-18T03:13:47;99044.84;;;6.69;91.03
15694;BME280;7947;48.834;9.132;2023-11-18T03:16:50;99048.41;;;6.63;91.78
15694;BME280;7947;48.834;9.132;2023-11-18T03:19:53;99053.06;;;6.67;93.06
15694;BME280;7947;48.834;9.132;2023-11-18T03:22:59;99046.56;;;6.63;92.94
15694;BME280;7947;48.834;9.132;2023-11-18T03:26:03;99045.38;;;6.59;93.18
15694;BME280;7947;48.834;9.132;2023-11-18T03:29:08;99047.00;;;6.60;93.16
15694;BME280;7947;48.834;9.132;2023-11-18T03:32:12;99046.41;;;6.58;93.58
15694;BME280;7947;48.834;9.132;2023-11-18T03:35:15;99040.41;;;6.63;93.00
15694;BME280;7947;48.834;9.132;2023-11-18T03:38:18;99050.25;;;6.62;92.63
15694;BME280;7947;48.834;9.132;2023-11-18T03:41:21;99054.41;;;6.58;92.10
15694;BME280;7947;48.834;9.132;2023-11-18T03:44:27;99055.22;;;6.59;92.92
15694;BME280;7947;48.834;9.132;2023-11-18T03:47:31;99054.88;;;6.55;93.05
15694;BME280;7947;48.834;9.132;2023-11-18T03:50:35;99059.53;;;6.60;92.52
15694;BME280;7947;48.834;9.132;2023-11-18T03:53:38;99056.94;;;6.53;92.37
15694;BME280;7947;48.834;9.132;2023-11-18T03:56:41;99050.09;;;6.46;92.46
15694;BME280;7947;48.834;9.132;2023-11-18T03:59:45;99045.56;;;6.46;93.19
15694;BME280;7947;48.834;9.132;2023-11-18T04:02:48;99050.53;;;6.43;93.17
15694;BME280;7947;48.834;9.132;2023-11-18T04:05:51;99056.06;;;6.41;92.00
15694;BME280;7947;48.834;9.132;2023-11-18T04:08:54;99050.31;;;6.44;90.46
15694;BME280;7947;48.834;9.132;2023-11-18T04:11:57;99053.75;;;6.45;88.69
15694;BME280;7947;48.834;9.132;2023-11-18T04:15:01;99053.75;;;6.45;88.48
15694;BME280;7947;48.834;9.132;2023-11-18T04:18:06;99062.28;;;6.35;87.95
15694;BME280;7947;48.834;9.132;2023-11-18T04:21:10;99061.34;;;6.29;87.66
15694;BME280;7947;48.834;9.132;2023-11-18T04:24:14;99063.78;;;6.31;87.74
15694;BME280;7947;48.834;9.132;2023-11-18T04:27:17;99060.28;;;6.19;88.49
15694;BME280;7947;48.834;9.132;2023-11-18T04:30:22;99059.91;;;6.15;88.51
15694;BME280;7947;48.834;9.132;2023-11-18T04:33:24;99063.16;;;6.17;89.30
15694;BME280;7947;48.834;9.132;2023-11-18T04:36:28;99059.75;;;6.10;88.86
15694;BME280;7947;48.834;9.132;2023-11-18T04:39:31;99057.91;;;6.11;89.79
15694;BME280;7947;48.834;9.132;2023-11-18T04:42:34;99057.25;;;6.15;89.49
15694;BME280;7947;48.834;9.132;2023-11-18T04:45:40;99050.28;;;6.14;89.37
15694;BME280;7947;48.834;9.132;2023-11-18T04:48:43;99053.59;;;6.10;89.26
15694;BME280;7947;48.834;9.132;2023-11-18T04:51:47;99052.13;;;6.14;88.41
15694;BME280;7947;48.834;9.132;2023-11-18T04:54:49;99061.16;;;6.13;87.73
15694;BME280;7947;48.834;9.132;2023-11-18T04:57:52;99059.75;;;5.92;88.09
15694;BME280;7947;48.834;9.132;2023-11-18T05:00:57;99063.13;;;5.81;88.91
15694;BME280;7947;48.834;9.132;2023-11-18T05:04:00;99065.09;;;5.68;89.12
15694;BME280;7947;48.834;9.132;2023-11-18T05:07:04;99063.31;;;5.62;88.75
15694;BME280;7947;48.834;9.132;2023-11-18T05:10:08;99049.66;;;5.58;90.11
15694;BME280;7947;48.834;9.132;2023-11-18T05:13:12;99047.84;;;5.52;90.42
15694;BME280;7947;48.834;9.132;2023-11-18T05:16:19;99056.81;;;5.58;89.71
15694;BME280;7947;48.834;9.132;2023-11-18T05:19:22;99052.47;;;5.63;88.58
15694;BME280;7947;48.834;9.132;2023-11-18T05:22:25;99051.19;;;5.47;88.30
15694;BME280;7947;48.834;9.132;2023-11-18T05:25:28;99053.91;;;5.41;89.14
15694;BME280;7947;48.834;9.132;2023-11-18T05:28:31;99058.56;;;5.45;87.41
15694;BME280;7947;48.834;9.132;2023-11-18T05:31:36;99058.47;;;5.34;86.53
15694;BME280;7947;48.834;9.132;2023-11-18T05:34:39;99059.28;;;5.34;87.03
15694;BME280;7947;48.834;9.132;2023-11-18T05:37:43;99047.66;;;5.29;87.84
15694;BME280;7947;48.834;9.132;2023-11-18T05:40:47;99048.34;;;5.24;88.07
15694;BME280;7947;48.834;9.132;2023-11-18T05:43:57;99051.28;;;5.34;88.60
15694;BME280;7947;48.834;9.132;2023-11-18T05:47:01;99056.69;;;5.28;88.70
15694;BME280;7947;48.834;9.132;2023-11-18T05:50:05;99061.31;;;5.14;88.76
15694;BME280;7947;48.834;9.132;2023-11-18T05:53:08;99053.75;;;5.11;89.60
15694;BME280;7947;48.834;9.132;2023-11-18T05:56:11;99050.72;;;5.08;90.02
15694;BME280;7947;48.834;9.132;2023-11-18T05:59:14;99046.19;;;5.15;89.54
15694;BME280;7947;48.834;9.132;2023-11-18T06:02:19;99050.22;;;5.17;89.67
15694;BME280;7947;48.834;9.132;2023-11-18T06:05:23;99035.91;;;5.18;89.08
15694;BME280;7947;48.834;9.132;2023-11-18T06:08:28;99041.72;;;5.09;89.65
15694;BME280;7947;48.834;9.132;2023-11-18T06:11:34;99037.50;;;5.01;89.82
15694;BME280;7947;48.834;9.132;2023-11-18T06:14:42;99037.03;;;5.04;89.90
15694;BME280;7947;48.834;9.132;2023-11-18T06:17:47;99039.09;;;5.02;89.66
15694;BME280;7947;48.834;9.132;2023-11-18T06:20:50;99023.66;;;4.93;89.29
15694;BME280;7947;48.834;9.132;2023-11-18T06:23:54;99025.94;;;4.89;88.45
15694;BME280;7947;48.834;9.132;2023-11-18T06:26:57;99035.81;;;5.07;88.20
15694;BME280;7947;48.834;9.132;2023-11-18T06:30:01;99041.75;;;5.02;87.99
15694;BME280;7947;48.834;9.132;2023-11-18T06:33:05;99053.44;;;5.01;87.15
15694;BME280;7947;48.834;9.132;2023-11-18T06:36:08;99058.19;;;4.93;86.91
15694;BME280;7947;48.834;9.132;2023-11-18T06:39:12;99070.06;;;4.90;86.57
15694;BME280;7947;48.834;9.132;2023-11-18T06:42:15;99081.38;;;4.79;87.77
15694;BME280;7947;48.834;9.132;2023-11-18T06:45:19;99080.41;;;4.74;88.99
15694;BME280;7947;48.834;9.132;2023-11-18T06:48:25;99064.88;;;4.71;88.68
15694;BME280;7947;48.834;9.132;2023-11-18T06:51:28;99067.53;;;4.71;88.38
15694;BME280;7947;48.834;9.132;2023-11-18T06:54:31;99065.22;;;4.81;87.79
15694;BME280;7947;48.834;9.132;2023-11-18T06:57:35;99065.81;;;4.83;87.65
15694;BME280;7947;48.834;9.132;2023-11-18T07:00:38;99053.59;;;4.82;88.61
15694;BME280;7947;48.834;9.132;2023-11-18T07:03:42;99063.34;;;4.88;89.43
15694;BME280;7947;48.834;9.132;2023-11-18T07:06:45;99062.19;;;4.77;88.79
15694;BME280;7947;48.834;9.132;2023-11-18T07:09:48;99065.13;;;4.94;88.96
15694;BME280;7947;48.834;9.132;2023-11-18T07:12:54;99060.84;;;4.93;90.03
15694;BME280;7947;48.834;9.132;2023-11-18T07:15:57;99058.91;;;5.06;90.58
15694;BME280;7947;48.834;9.132;2023-11-18T07:19:02;99061.81;;;5.23;89.74
15694;BME280;7947;48.834;9.132;2023-11-18T07:22:05;99072.28;;;5.24;89.80
15694;BME280;7947;48.834;9.132;2023-11-18T07:25:08;99080.94;;;5.38;89.37
15694;BME280;7947;48.834;9.132;2023-11-18T07:28:11;99079.91;;;5.39;89.86
15694;BME280;7947;48.834;9.132;2023-11-18T07:31:16;99077.59;;;5.24;90.54
15694;BME280;7947;48.834;9.132;2023-11-18T07:34:21;99081.22;;;5.30;91.00
15694;BME280;7947;48.834;9.132;2023-11-18T07:37:25;99067.56;;;5.44;91.68
15694;BME280;7947;48.834;9.132;2023-11-18T07:40:28;99073.06;;;5.49;91.60
15694;BME280;7947;48.834;9.132;2023-11-18T07:43:31;99065.22;;;5.55;90.95
15694;BME280;7947;48.834;9.132;2023-11-18T07:46:35;99057.56;;;5.65;91.18
15694;BME280;7947;48.834;9.132;2023-11-18T07:49:41;99060.81;;;5.67;91.51
15694;BME280;7947;48.834;9.132;2023-11-18T07:52:44;99051.66;;;5.81;91.17
15694;BME280;7947;48.834;9.132;2023-11-18T07:55:47;99051.03;;;5.85;92.32
15694;BME280;7947;48.834;9.132;2023-11-18T07:58:52;99053.75;;;5.97;91.68
15694;BME280;7947;48.834;9.132;2023-11-18T08:01:56;99060.41;;;6.06;91.87
15694;BME280;7947;48.834;9.132;2023-11-18T08:05:01;99055.00;;;6.12;92.71
15694;BME280;7947;48.834;9.132;2023-11-18T08:08:05;99064.91;;;6.23;92.51
15694;BME280;7947;48.834;9.132;2023-11-18T08:11:10;99059.50;;;6.30;93.24
15694;BME280;7947;48.834;9.132;2023-11-18T08:14:14;99049.38;;;6.38;93.88
15694;BME280;7947;48.834;9.132;2023-11-18T08:17:17;99050.47;;;6.61;92.93
15694;BME280;7947;48.834;9.132;2023-11-18T08:20:22;99064.44;;;6.74;92.34
15694;BME280;7947;48.834;9.132;2023-11-18T08:23:27;99064.94;;;6.83;91.61
15694;BME280;7947;48.834;9.132;2023-11-18T08:26:30;99064.03;;;6.89;91.97
15694;BME280;7947;48.834;9.132;2023-11-18T08:29:33;99064.97;;;6.94;92.04
15694;BME280;7947;48.834;9.132;2023-11-18T08:32:37;99074.50;;;7.02;91.67
15694;BME280;7947;48.834;9.132;2023-11-18T08:35:41;99062.88;;;6.96;91.76
15694;BME280;7947;48.834;9.132;2023-11-18T08:38:44;99059.91;;;7.04;91.77
15694;BME280;7947;48.834;9.132;2023-11-18T08:41:49;99071.16;;;7.18;91.98
15694;BME280;7947;48.834;9.132;2023-11-18T08:44:52;99063.63;;;7.26;91.96
15694;BME280;7947;48.834;9.132;2023-11-18T08:47:57;99071.19;;;7.41;91.54
15694;BME280;7947;48.834;9.132;2023-11-18T08:51:01;99066.31;;;7.50;91.17
15694;BME280;7947;48.834;9.132;2023-11-18T08:54:04;99067.72;;;7.52;90.66
15694;BME280;7947;48.834;9.132;2023-11-18T08:57:23;99064.56;;;7.55;90.79
15694;BME280;7947;48.834;9.132;2023-11-18T09:00:27;99050.63;;;7.65;90.39
15694;BME280;7947;48.834;9.132;2023-11-18T09:03:47;99047.38;;;7.74;89.32
15694;BME280;7947;48.834;9.132;2023-11-18T09:06:55;99039.13;;;7.87;87.99
15694;BME280;7947;48.834;9.132;2023-11-18T09:10:01;99055.13;;;7.99;87.43
15694;BME280;7947;48.834;9.132;2023-11-18T09:13:04;99038.84;;;8.12;87.61
15694;BME280;7947;48.834;9.132;2023-11-18T09:16:08;99042.91;;;8.26;87.55
15694;BME280;7947;48.834;9.132;2023-11-18T09:19:11;99057.50;;;8.35;87.28
15694;BME280;7947;48.834;9.132;2023-11-18T09:22:15;99057.25;;;8.37;85.94
15694;BME280;7947;48.834;9.132;2023-11-18T09:25:18;99050.41;;;8.41;85.30
15694;BME280;7947;48.834;9.132;2023-11-18T09:28:24;99050.03;;;8.49;85.60
15694;BME280;7947;48.834;9.132;2023-11-18T09:31:29;99044.34;;;8.45;85.77
15694;BME280;7947;48.834;9.132;2023-11-18T09:34:35;99040.19;;;8.66;84.81
15694;BME280;7947;48.834;9.132;2023-11-18T09:37:42;99048.66;;;8.91;83.95
15694;BME280;7947;48.834;9.132;2023-11-18T09:40:47;99041.53;;;8.96;83.23
15694;BME280;7947;48.834;9.132;2023-11-18T09:43:50;99048.13;;;9.05;82.54
15694;BME280;7947;48.834;9.132;2023-11-18T09:46:57;99055.00;;;9.01;82.60
15694;BME280;7947;48.834;9.132;2023-11-18T09:50:08;99052.56;;;9.00;82.52
15694;BME280;7947;48.834;9.132;2023-11-18T09:53:14;99035.31;;;9.07;82.80
15694;BME280;7947;48.834;9.132;2023-11-18T09:56:35;99033.84;;;9.17;81.70
15694;BME280;7947;48.834;9.132;2023-11-18T09:59:47;99027.28;;;9.24;81.17
15694;BME280;7947;48.834;9.132;2023-11-18T10:02:56;99034.25;;;9.25;82.11
15694;BME280;7947;48.834;9.132;2023-11-18T10:06:00;99030.09;;;9.18;81.92
15694;BME280;7947;48.834;9.132;2023-11-18T10:09:07;99032.88;;;9.23;82.12
15694;BME280;7947;48.834;9.132;2023-11-18T10:12:20;99024.19;;;9.16;82.49
15694;BME280;7947;48.834;9.132;2023-11-18T10:15:26;99035.88;;;9.26;82.45
15694;BME280;7947;48.834;9.132;2023-11-18T10:18:33;99024.84;;;9.23;83.61
15694;BME280;7947;48.834;9.132;2023-11-18T10:21:38;99019.31;;;9.13;82.62
15694;BME280;7947;48.834;9.132;2023-11-18T10:24:45;99013.66;;;9.09;83.91
15694;BME280;7947;48.834;9.132;2023-11-18T10:27:48;99014.22;;;9.11;83.92
15694;BME280;7947;48.834;9.132;2023-11-18T10:30:50;99025.56;;;9.18;84.38
15694;BME280;7947;48.834;9.132;2023-11-18T10:33:54;99026.63;;;9.17;84.78
15694;BME280;7947;48.834;9.132;2023-11-18T10:37:01;99019.66;;;9.16;85.39
15694;BME280;7947;48.834;9.132;2023-11-18T10:40:07;99034.66;;;9.34;84.62
15694;BME280;7947;48.834;9.132;2023-11-18T10:43:10;99031.56;;;9.42;83.05
15694;BME280;7947;48.834;9.132;2023-11-18T10:46:14;99031.78;;;9.57;81.52
15694;BME280;7947;48.834;9.132;2023-11-18T10:49:17;99022.25;;;9.66;81.16
15694;BME280;7947;48.834;9.132;2023-11-18T10:52:20;99013.13;;;9.62;81.63
15694;BME280;7947;48.834;9.132;2023-11-18T10:55:34;99011.75;;;9.43;81.99
15694;BME280;7947;48.834;9.132;2023-11-18T10:58:37;99011.94;;;9.36;81.81
15694;BME280;7947;48.834;9.132;2023-11-18T11:01:43;99003.25;;;9.29;81.33
15694;BME280;7947;48.834;9.132;2023-11-18T11:04:46;98996.94;;;9.19;81.36
15694;BME280;7947;48.834;9.132;2023-11-18T11:07:51;98991.44;;;9.25;81.36
15694;BME280;7947;48.834;9.132;2023-11-18T11:10:56;99003.34;;;9.18;81.55
15694;BME280;7947;48.834;9.132;2023-11-18T11:14:03;99000.66;;;9.18;80.50
15694;BME280;7947;48.834;9.132;2023-11-18T11:17:06;99008.22;;;9.21;81.87
15694;BME280;7947;48.834;9.132;2023-11-18T11:20:18;99005.13;;;9.29;82.14
15694;BME280;7947;48.834;9.132;2023-11-18T11:23:33;99004.94;;;9.35;80.69
15694;BME280;7947;48.834;9.132;2023-11-18T11:26:52;98998.31;;;9.38;81.02
15694;BME280;7947;48.834;9.132;2023-11-18T11:30:02;98991.91;;;9.39;81.42
15694;BME280;7947;48.834;9.132;2023-11-18T11:33:14;98985.31;;;9.46;82.48
15694;BME280;7947;48.834;9.132;2023-11-18T11:36:21;98976.69;;;9.61;82.58
15694;BME280;7947;48.834;9.132;2023-11-18T11:39:29;98969.72;;;9.60;80.88
15694;BME280;7947;48.834;9.132;2023-11-18T11:42:40;98981.63;;;9.69;80.71
15694;BME280;7947;48.834;9.132;2023-11-18T11:45:44;98970.38;;;9.72;80.23
15694;BME280;7947;48.834;9.132;2023-11-18T11:48:49;98968.41;;;9.84;80.14
15694;BME280;7947;48.834;9.132;2023-11-18T11:52:00;98958.81;;;9.88;78.35
15694;BME280;7947;48.834;9.132;2023-11-18T11:55:09;98948.16;;;9.93;77.47
15694;BME280;7947;48.834;9.132;2023-11-18T11:58:30;98946.28;;;9.93;77.53
15694;BME280;7947;48.834;9.132;2023-11-18T12:01:35;98940.31;;;9.86;77.32
15694;BME280;7947;48.834;9.132;2023-11-18T12:04:39;98927.22;;;9.90;77.50
15694;BME280;7947;48.834;9.132;2023-11-18T12:07:45;98939.03;;;9.89;75.47
15694;BME280;7947;48.834;9.132;2023-11-18T12:10:51;98932.34;;;9.70;74.30
15694;BME280;7947;48.834;9.132;2023-11-18T12:14:06;98927.53;;;9.72;74.80
15694;BME280;7947;48.834;9.132;2023-11-18T12:25:29;98889.31;;;9.76;76.09
15694;BME280;7947;48.834;9.132;2023-11-18T12:28:34;98890.59;;;9.74;76.12
15694;BME280;7947;48.834;9.132;2023-11-18T12:31:41;98883.75;;;9.83;75.66
15694;BME280;7947;48.834;9.132;2023-11-18T12:34:51;98888.50;;;9.76;76.01
15694;BME280;7947;48.834;9.132;2023-11-18T12:38:26;98879.84;;;9.69;75.35
15694;BME280;7947;48.834;9.132;2023-11-18T12:41:36;98868.88;;;9.70;74.63
15694;BME280;7947;48.834;9.132;2023-11-18T12:44:57;98869.19;;;9.74;73.55
15694;BME280;7947;48.834;9.132;2023-11-18T12:48:14;98869.81;;;9.81;73.22
15694;BME280;7947;48.834;9.132;2023-11-18T12:51:17;98869.81;;;9.81;73.50
15694;BME280;7947;48.834;9.132;2023-11-18T12:54:22;98872.06;;;9.67;73.30
15694;BME280;7947;48.834;9.132;2023-11-18T12:57:27;98868.06;;;9.70;70.63
15694;BME280;7947;48.834;9.132;2023-11-18T13:00:33;98858.56;;;9.57;72.54
15694;BME280;7947;48.834;9.132;2023-11-18T13:03:38;98857.56;;;9.63;73.36
15694;BME280;7947;48.834;9.132;2023-11-18T13:06:43;98857.31;;;9.65;70.54
15694;BME280;7947;48.834;9.132;2023-11-18T13:09:46;98857.34;;;9.70;70.62
15694;BME280;7947;48.834;9.132;2023-11-18T13:12:49;98869.88;;;9.64;71.46
15694;BME280;7947;48.834;9.132;2023-11-18T13:15:52;98847.59;;;9.59;71.58
15694;BME280;7947;48.834;9.132;2023-11-18T13:18:56;98850.56;;;9.62;70.18
15694;BME280;7947;48.834;9.132;2023-11-18T13:21:59;98849.97;;;9.55;70.32
15694;BME280;7947;48.834;9.132;2023-11-18T13:25:02;98831.47;;;9.54;70.90
15694;BME280;7947;48.834;9.132;2023-11-18T13:28:07;98838.78;;;9.37;72.47
15694;BME280;7947;48.834;9.132;2023-11-18T13:31:12;98832.91;;;9.18;72.84
15694;BME280;7947;48.834;9.132;2023-11-18T13:34:19;98831.91;;;9.24;72.75
15694;BME280;7947;48.834;9.132;2023-11-18T13:37:22;98824.63;;;9.20;73.99
15694;BME280;7947;48.834;9.132;2023-11-18T13:40:25;98822.16;;;9.13;73.93
15694;BME280;7947;48.834;9.132;2023-11-18T13:43:41;98805.97;;;9.25;73.62
15694;BME280;7947;48.834;9.132;2023-11-18T13:46:44;98803.00;;;9.21;74.68
15694;BME280;7947;48.834;9.132;2023-11-18T13:49:50;98801.44;;;9.25;75.17
15694;BME280;7947;48.834;9.132;2023-11-18T13:52:54;98786.47;;;9.29;74.98
15694;BME280;7947;48.834;9.132;2023-11-18T13:55:57;98801.88;;;9.39;75.59
15694;BME280;7947;48.834;9.132;2023-11-18T13:58:59;98785.81;;;9.39;75.03
15694;BME280;7947;48.834;9.132;2023-11-18T14:02:04;98782.78;;;9.35;74.96
15694;BME280;7947;48.834;9.132;2023-11-18T14:05:16;98788.06;;;9.25;76.05
15694;BME280;7947;48.834;9.132;2023-11-18T14:08:19;98781.31;;;9.23;75.79
15694;BME280;7947;48.834;9.132;2023-11-18T14:11:22;98781.94;;;9.30;76.25
15694;BME280;7947;48.834;9.132;2023-11-18T14:14:26;98777.41;;;9.30;76.56
15694;BME280;7947;48.834;9.132;2023-11-18T14:17:31;98772.75;;;9.21;77.01
15694;BME280;7947;48.834;9.132;2023-11-18T14:20:37;98774.25;;;9.12;77.44
15694;BME280;7947;48.834;9.132;2023-11-18T14:23:40;98750.50;;;9.20;77.06
15694;BME280;7947;48.834;9.132;2023-11-18T14:26:44;98745.47;;;9.24;77.03
15694;BME280;7947;48.834;9.132;2023-11-18T14:29:48;98733.59;;;9.15;77.15
15694;BME280;7947;48.834;9.132;2023-11-18T14:32:52;98737.56;;;9.12;78.62
15694;BME280;7947;48.834;9.132;2023-11-18T14:35:58;98747.28;;;9.18;79.07
15694;BME280;7947;48.834;9.132;2023-11-18T14:39:03;98731.03;;;9.25;78.87
15694;BME280;7947;48.834;9.132;2023-11-18T14:42:07;98727.81;;;9.23;78.45
15694;BME280;7947;48.834;9.132;2023-11-18T14:45:13;98732.28;;;9.17;78.84
15694;BME280;7947;48.834;9.132;2023-11-18T14:48:17;98717.03;;;9.18;79.00
15694;BME280;7947;48.834;9.132;2023-11-18T14:51:22;98711.94;;;9.16;79.61
15694;BME280;7947;48.834;9.132;2023-11-18T14:54:26;98712.75;;;9.17;79.03
15694;BME280;7947;48.834;9.132;2023-11-18T14:57:32;98716.16;;;9.12;79.30
15694;BME280;7947;48.834;9.132;2023-11-18T15:00:36;98725.88;;;9.18;79.64
15694;BME280;7947;48.834;9.132;2023-11-18T15:03:39;98736.78;;;9.12;79.51
15694;BME280;7947;48.834;9.132;2023-11-18T15:06:44;98736.56;;;9.18;79.15
15694;BME280;7947;48.834;9.132;2023-11-18T15:09:48;98741.22;;;9.28;78.77
15694;BME280;7947;48.834;9.132;2023-11-18T15:12:53;98737.50;;;9.29;78.44
15694;BME280;7947;48.834;9.132;2023-11-18T15:15:56;98743.88;;;9.23;79.29
15694;BME280;7947;48.834;9.132;2023-11-18T15:19:00;98746.53;;;9.23;79.49
15694;BME280;7947;48.834;9.132;2023-11-18T15:22:05;98736.78;;;9.12;79.36
15694;BME280;7947;48.834;9.132;2023-11-18T15:25:09;98721.72;;;9.05;79.54
15694;BME280;7947;48.834;9.132;2023-11-18T15:28:14;98724.88;;;9.02;80.04
15694;BME280;7947;48.834;9.132;2023-11-18T15:31:19;98714.63;;;8.94;80.15
15694;BME280;7947;48.834;9.132;2023-11-18T15:34:23;98720.97;;;9.10;79.55
15694;BME280;7947;48.834;9.132;2023-11-18T15:37:28;98723.59;;;9.05;79.87
15694;BME280;7947;48.834;9.132;2023-11-18T15:40:32;98725.41;;;8.99;80.42
15694;BME280;7947;48.834;9.132;2023-11-18T15:43:36;98717.69;;;9.03;80.78
15694;BME280;7947;48.834;9.132;2023-11-18T15:46:39;98719.38;;;8.87;81.04
15694;BME280;7947;48.834;9.132;2023-11-18T15:49:45;98715.13;;;8.91;81.08
15694;BME280;7947;48.834;9.132;2023-11-18T15:52:50;98721.53;;;8.90;82.01
15694;BME280;7947;48.834;9.132;2023-11-18T15:55:55;98718.63;;;8.92;81.46
15694;BME280;7947;48.834;9.132;2023-11-18T15:58:58;98703.94;;;8.94;81.89
15694;BME280;7947;48.834;9.132;2023-11-18T16:02:02;98699.66;;;8.93;82.16
15694;BME280;7947;48.834;9.132;2023-11-18T16:05:07;98704.47;;;8.96;82.67
15694;BME280;7947;48.834;9.132;2023-11-18T16:08:13;98692.22;;;9.00;82.79
15694;BME280;7947;48.834;9.132;2023-11-18T16:11:17;98686.13;;;9.05;82.67
15694;BME280;7947;48.834;9.132;2023-11-18T16:14:20;98673.13;;;9.14;82.40
15694;BME280;7947;48.834;9.132;2023-11-18T16:17:24;98656.44;;;9.06;82.98
15694;BME280;7947;48.834;9.132;2023-11-18T16:20:29;98651.97;;;9.12;82.65
15694;BME280;7947;48.834;9.132;2023-11-18T16:23:36;98656.75;;;9.10;82.71
15694;BME280;7947;48.834;9.132;2023-11-18T16:26:41;98657.31;;;9.12;82.22
15694;BME280;7947;48.834;9.132;2023-11-18T16:29:49;98665.59;;;9.10;81.58
15694;BME280;7947;48.834;9.132;2023-11-18T16:32:53;98666.66;;;9.09;81.75
15694;BME280;7947;48.834;9.132;2023-11-18T16:35:56;98670.19;;;9.15;81.49
15694;BME280;7947;48.834;9.132;2023-11-18T16:39:02;98665.41;;;9.17;80.58
15694;BME280;7947;48.834;9.132;2023-11-18T16:42:06;98645.59;;;9.18;80.98
15694;BME280;7947;48.834;9.132;2023-11-18T16:45:10;98644.78;;;9.18;80.86
15694;BME280;7947;48.834;9.132;2023-11-18T16:48:14;98636.19;;;9.16;80.87
15694;BME280;7947;48.834;9.132;2023-11-18T16:51:18;98613.38;;;9.08;80.53
15694;BME280;7947;48.834;9.132;2023-11-18T16:54:24;98618.75;;;9.08;80.15
15694;BME280;7947;48.834;9.132;2023-11-18T16:57:41;98613.94;;;9.10;79.49